Time;durP1;ratioP1;P1;durP2;ratioP2;P2;SDS_P1;SDS_P2;PMS_P1;PMS_P2;Temp;Humidity;BMP_temperature;BMP_pressure;BME280_temperature;BME280_humidity;BME280_pressure;Samples;Min_cycle;Max_cycle;Signal;HPM_P1;HPM_P2
2023/03/26 00:02:38;0.00;0.00;0.62;0.00;0.00;0.62;2.23;1.60;;;24.00;25.20;;;;;;2252317;61;20833;-67
2023/03/26 00:05:23;0.00;0.00;0.62;0.00;0.00;0.62;2.53;2.00;;;24.00;25.70;;;;;;2251602;61;20386;-67
2023/03/26 00:08:09;0.00;0.00;0.62;0.00;0.00;0.62;2.27;1.60;;;24.00;25.20;;;;;;2252249;61;20422;-72
2023/03/26 00:10:55;0.00;0.00;0.62;0.00;0.00;0.62;1.90;1.40;;;24.00;25.20;;;;;;2251812;61;20851;-67
2023/03/26 00:13:42;0.00;0.00;0.62;0.00;0.00;0.62;3.20;1.60;;;24.00;25.20;;;;;;2252176;61;20934;-67
2023/03/26 00:16:30;0.00;0.00;0.62;0.00;0.00;0.62;1.80;1.13;;;24.00;25.20;;;;;;2252065;61;20390;-67
2023/03/26 00:19:15;0.00;0.00;0.62;0.00;0.00;0.62;1.87;1.30;;;24.00;25.20;;;;;;2251639;61;20367;-67
2023/03/26 00:22:02;0.00;0.00;0.62;0.00;0.00;0.62;2.47;1.53;;;24.00;25.20;;;;;;2251744;61;20425;-68
2023/03/26 00:24:49;0.00;0.00;0.62;0.00;0.00;0.62;2.40;1.47;;;24.00;25.20;;;;;;2252318;61;20801;-67
2023/03/26 00:27:35;0.00;0.00;0.62;0.00;0.00;0.62;2.27;1.50;;;24.00;25.20;;;;;;2251632;61;20453;-67
2023/03/26 00:30:21;0.00;0.00;0.62;0.00;0.00;0.62;2.10;1.47;;;24.00;25.20;;;;;;2251354;61;20846;-72
2023/03/26 00:33:06;0.00;0.00;0.62;0.00;0.00;0.62;2.10;1.60;;;24.00;25.20;;;;;;2252131;61;20374;-67
2023/03/26 00:35:52;0.00;0.00;0.62;0.00;0.00;0.62;2.20;1.50;;;23.90;25.10;;;;;;2252355;61;20397;-67
2023/03/26 00:38:38;0.00;0.00;0.62;0.00;0.00;0.62;2.53;1.60;;;24.00;25.20;;;;;;2251436;61;20451;-67
2023/03/26 00:41:25;0.00;0.00;0.62;0.00;0.00;0.62;2.20;1.60;;;23.90;25.20;;;;;;2251459;61;20362;-67
2023/03/26 00:44:12;0.00;0.00;0.62;0.00;0.00;0.62;1.50;1.10;;;24.00;25.20;;;;;;2251550;61;20366;-67
2023/03/26 00:46:57;0.00;0.00;0.62;0.00;0.00;0.62;1.63;1.10;;;23.90;25.20;;;;;;2252411;61;20390;-67
2023/03/26 00:49:41;0.00;0.00;0.62;0.00;0.00;0.62;2.20;1.60;;;24.00;25.20;;;;;;2251082;61;20395;-67
2023/03/26 00:52:27;0.00;0.00;0.62;0.00;0.00;0.62;1.70;1.10;;;23.90;25.20;;;;;;2252436;61;20513;-67
2023/03/26 00:55:12;0.00;0.00;0.62;0.00;0.00;0.62;1.63;1.03;;;23.90;25.20;;;;;;2252172;61;20442;-67
2023/03/26 00:57:57;0.00;0.00;0.62;0.00;0.00;0.62;1.57;1.07;;;23.90;25.20;;;;;;2251958;61;20966;-67
2023/03/26 01:00:47;0.00;0.00;0.62;0.00;0.00;0.62;2.27;1.47;;;23.90;25.20;;;;;;2251810;61;20399;-67
2023/03/26 01:03:35;0.00;0.00;0.62;0.00;0.00;0.62;1.97;1.40;;;23.90;25.20;;;;;;2251014;61;20930;-67
2023/03/26 01:06:31;0.00;0.00;0.62;0.00;0.00;0.62;1.70;1.20;;;23.90;25.20;;;;;;2251985;61;20838;-68
2023/03/26 01:09:19;0.00;0.00;0.62;0.00;0.00;0.62;1.90;1.10;;;23.90;25.20;;;;;;2251690;61;20463;-67
2023/03/26 01:12:07;0.00;0.00;0.62;0.00;0.00;0.62;1.90;1.20;;;23.90;25.20;;;;;;2250996;61;20366;-67
2023/03/26 01:14:59;0.00;0.00;0.62;0.00;0.00;0.62;2.37;1.30;;;23.90;25.20;;;;;;2252023;61;20363;-67
2023/03/26 01:17:45;0.00;0.00;0.62;0.00;0.00;0.62;1.80;1.13;;;23.90;25.20;;;;;;2251385;61;20367;-67
2023/03/26 01:20:37;0.00;0.00;0.62;0.00;0.00;0.62;1.90;1.30;;;23.90;25.20;;;;;;2251879;61;20393;-67
2023/03/26 01:23:29;0.00;0.00;0.62;0.00;0.00;0.62;1.80;1.23;;;23.90;25.20;;;;;;2251944;61;20394;-67
2023/03/26 01:26:53;0.00;0.00;0.62;0.00;0.00;0.62;2.53;1.40;;;23.90;25.20;;;;;;2253786;61;20387;-67
2023/03/26 01:29:45;0.00;0.00;0.62;0.00;0.00;0.62;2.10;1.23;;;23.90;25.20;;;;;;2250308;61;20440;-67
2023/03/26 01:32:49;0.00;0.00;0.62;0.00;0.00;0.62;1.50;1.00;;;23.90;25.30;;;;;;2251300;61;20363;-67
2023/03/26 01:35:43;0.00;0.00;0.62;0.00;0.00;0.62;1.63;1.13;;;23.90;25.30;;;;;;2251902;61;20386;-67
2023/03/26 01:38:36;0.00;0.00;0.62;0.00;0.00;0.62;1.93;1.27;;;23.90;25.30;;;;;;2251869;61;20417;-67
2023/03/26 01:41:32;0.00;0.00;0.62;0.00;0.00;0.62;1.60;0.97;;;23.90;25.80;;;;;;2251299;61;20355;-67
2023/03/26 01:44:26;0.00;0.00;0.62;0.00;0.00;0.62;2.00;1.20;;;23.90;25.30;;;;;;2251980;61;20367;-67
2023/03/26 01:47:12;0.00;0.00;0.62;0.00;0.00;0.62;1.80;1.13;;;23.90;25.30;;;;;;2251637;61;20446;-67
2023/03/26 01:49:57;0.00;0.00;0.62;0.00;0.00;0.62;2.20;1.20;;;23.90;25.30;;;;;;2251034;61;20510;-67
2023/03/26 01:52:42;0.00;0.00;0.62;0.00;0.00;0.62;2.10;1.10;;;23.90;25.30;;;;;;2252039;61;20401;-68
2023/03/26 01:55:36;0.00;0.00;0.62;0.00;0.00;0.62;1.60;0.90;;;23.80;25.20;;;;;;2250868;61;20390;-66
2023/03/26 01:58:33;0.00;0.00;0.62;0.00;0.00;0.62;1.70;1.37;;;23.80;25.20;;;;;;2254177;61;20415;-67
2023/03/26 02:01:26;0.00;0.00;0.62;0.00;0.00;0.62;1.80;1.10;;;23.90;25.30;;;;;;2251300;61;20493;-70
2023/03/26 02:04:29;0.00;0.00;0.62;0.00;0.00;0.62;2.53;1.20;;;23.90;25.30;;;;;;2251279;61;20355;-67
2023/03/26 02:07:20;0.00;0.00;0.62;0.00;0.00;0.62;1.77;1.10;;;23.80;25.20;;;;;;2251522;61;20798;-67
2023/03/26 02:10:12;0.00;0.00;0.62;0.00;0.00;0.62;1.83;1.10;;;23.90;25.80;;;;;;2251134;61;20386;-67
2023/03/26 02:12:58;0.00;0.00;0.62;0.00;0.00;0.62;1.80;1.07;;;23.80;25.20;;;;;;2252289;61;20363;-67
2023/03/26 02:15:57;0.00;0.00;0.62;0.00;0.00;0.62;1.93;1.10;;;23.80;25.20;;;;;;2252458;61;20474;-67
2023/03/26 02:18:43;0.00;0.00;0.62;0.00;0.00;0.62;1.50;1.07;;;23.80;25.20;;;;;;2252206;61;20363;-67
2023/03/26 02:21:32;0.00;0.00;0.62;0.00;0.00;0.62;1.90;1.00;;;23.80;25.20;;;;;;2252189;61;20447;-67
2023/03/26 02:24:18;0.00;0.00;0.62;0.00;0.00;0.62;2.27;1.17;;;23.80;25.20;;;;;;2251853;61;20367;-67
2023/03/26 02:27:06;0.00;0.00;0.62;0.00;0.00;0.62;1.67;0.90;;;23.80;25.30;;;;;;2252267;61;20389;-67
2023/03/26 02:29:51;0.00;0.00;0.62;0.00;0.00;0.62;1.77;1.00;;;23.80;25.20;;;;;;2251621;61;20421;-67
2023/03/26 02:32:42;0.00;0.00;0.62;0.00;0.00;0.62;1.83;1.10;;;23.80;25.30;;;;;;2251795;61;20393;-67
2023/03/26 02:35:27;0.00;0.00;0.62;0.00;0.00;0.62;1.53;1.00;;;23.80;25.30;;;;;;2252045;61;20402;-67
2023/03/26 02:38:18;0.00;0.00;0.62;0.00;0.00;0.62;1.70;1.10;;;23.80;25.20;;;;;;2252049;61;20418;-67
2023/03/26 02:41:04;0.00;0.00;0.62;0.00;0.00;0.62;1.50;1.13;;;23.80;25.20;;;;;;2251137;61;20375;-67
2023/03/26 02:44:04;0.00;0.00;0.62;0.00;0.00;0.62;1.30;0.70;;;23.80;25.30;;;;;;2254911;61;20406;-72
2023/03/26 02:47:27;0.00;0.00;0.62;0.00;0.00;0.62;1.53;0.90;;;23.80;25.30;;;;;;2250515;61;20786;-69
2023/03/26 02:50:40;0.00;0.00;0.62;0.00;0.00;0.62;2.27;1.17;;;23.80;25.30;;;;;;2239025;61;20392;-67
2023/03/26 02:53:56;0.00;0.00;0.62;0.00;0.00;0.62;1.57;0.90;;;23.80;25.30;;;;;;2232541;62;20375;-67
2023/03/26 02:57:03;0.00;0.00;0.62;0.00;0.00;0.62;1.50;0.90;;;23.80;25.30;;;;;;2239516;61;20501;-67
2023/03/26 03:00:13;0.00;0.00;0.62;0.00;0.00;0.62;1.40;0.80;;;23.80;25.30;;;;;;2231150;62;20473;-67
2023/03/26 03:03:05;0.00;0.00;0.62;0.00;0.00;0.62;1.30;0.80;;;23.80;25.30;;;;;;2234866;62;20934;-67
2023/03/26 03:05:52;0.00;0.00;0.62;0.00;0.00;0.62;1.50;0.80;;;23.80;25.30;;;;;;2235290;62;20425;-67
2023/03/26 03:08:49;0.00;0.00;0.62;0.00;0.00;0.62;1.77;0.90;;;23.80;25.30;;;;;;2235158;62;20371;-67
2023/03/26 03:11:34;0.00;0.00;0.62;0.00;0.00;0.62;1.30;0.80;;;23.80;25.30;;;;;;2235352;62;20398;-67
2023/03/26 03:14:20;0.00;0.00;0.62;0.00;0.00;0.62;1.33;0.80;;;23.80;25.30;;;;;;2235486;62;20894;-67
2023/03/26 03:17:05;0.00;0.00;0.62;0.00;0.00;0.62;1.93;0.80;;;23.80;25.30;;;;;;2234804;62;20983;-70
2023/03/26 03:19:50;0.00;0.00;0.62;0.00;0.00;0.62;1.60;0.90;;;23.80;25.30;;;;;;2232693;61;20447;-69
2023/03/26 03:22:36;0.00;0.00;0.62;0.00;0.00;0.62;1.50;0.80;;;23.80;25.30;;;;;;2243249;61;20388;-70
2023/03/26 03:25:22;0.00;0.00;0.62;0.00;0.00;0.62;1.53;0.93;;;23.70;25.20;;;;;;2242769;61;20474;-67
2023/03/26 03:28:08;0.00;0.00;0.62;0.00;0.00;0.62;1.57;0.77;;;23.80;25.30;;;;;;2261311;61;20623;-67
2023/03/26 03:30:56;0.00;0.00;0.62;0.00;0.00;0.62;1.50;0.80;;;23.70;25.20;;;;;;2256570;61;20397;-67
2023/03/26 03:33:47;0.00;0.00;0.62;0.00;0.00;0.62;1.70;1.10;;;23.80;25.30;;;;;;2262718;61;20412;-68
2023/03/26 03:36:37;0.00;0.00;0.62;0.00;0.00;0.62;1.40;0.70;;;23.70;25.30;;;;;;2277631;40;20406;-68
2023/03/26 03:39:36;0.00;0.00;0.62;0.00;0.00;0.62;1.73;1.03;;;23.80;25.30;;;;;;2264338;61;20907;-67
2023/03/26 03:42:21;0.00;0.00;0.62;0.00;0.00;0.62;1.97;0.70;;;23.80;25.30;;;;;;2267971;61;20402;-67
2023/03/26 03:45:11;0.00;0.00;0.62;0.00;0.00;0.62;1.40;0.70;;;23.80;25.40;;;;;;2268388;61;20395;-67
2023/03/26 03:48:14;0.00;0.00;0.62;0.00;0.00;0.62;1.60;1.00;;;23.70;25.30;;;;;;2272017;61;20695;-67
2023/03/26 03:51:05;0.00;0.00;0.62;0.00;0.00;0.62;1.80;1.17;;;23.80;25.30;;;;;;2268885;61;20386;-67
2023/03/26 03:54:22;0.00;0.00;0.62;0.00;0.00;0.62;1.43;0.80;;;23.80;25.30;;;;;;2271065;61;20397;-67
2023/03/26 03:57:24;0.00;0.00;0.62;0.00;0.00;0.62;1.30;0.70;;;23.70;25.30;;;;;;2269224;61;20358;-67
2023/03/26 04:00:40;0.00;0.00;0.62;0.00;0.00;0.62;1.60;0.80;;;23.70;25.30;;;;;;2271858;61;20358;-66
2023/03/26 04:03:48;0.00;0.00;0.62;0.00;0.00;0.62;1.60;0.90;;;23.70;25.30;;;;;;2270868;61;20422;-67
2023/03/26 04:06:35;0.00;0.00;0.62;0.00;0.00;0.62;1.50;1.00;;;23.70;25.30;;;;;;2269465;61;20374;-67
2023/03/26 04:09:20;0.00;0.00;0.62;0.00;0.00;0.62;1.40;0.80;;;23.70;25.30;;;;;;2268062;61;20851;-67
2023/03/26 04:12:06;0.00;0.00;0.62;0.00;0.00;0.62;1.40;0.80;;;23.70;25.30;;;;;;2269308;61;20374;-67
2023/03/26 04:15:08;0.00;0.00;0.62;0.00;0.00;0.62;1.70;0.80;;;23.70;25.30;;;;;;2269409;61;20773;-67
2023/03/26 04:17:53;0.00;0.00;0.62;0.00;0.00;0.62;1.30;0.80;;;23.70;25.30;;;;;;2271817;61;20371;-67
2023/03/26 04:20:45;0.00;0.00;0.62;0.00;0.00;0.62;1.27;0.70;;;23.70;25.30;;;;;;2268955;61;20373;-68
2023/03/26 04:23:33;0.00;0.00;0.62;0.00;0.00;0.62;2.33;1.00;;;23.70;25.30;;;;;;2268472;61;20354;-67
2023/03/26 04:26:24;0.00;0.00;0.62;0.00;0.00;0.62;1.30;0.70;;;23.70;25.30;;;;;;2269352;61;20393;-67
2023/03/26 04:29:26;0.00;0.00;0.62;0.00;0.00;0.62;1.30;0.70;;;23.70;25.30;;;;;;2268645;61;20365;-67
2023/03/26 04:32:23;0.00;0.00;0.62;0.00;0.00;0.62;1.50;0.90;;;23.70;25.30;;;;;;2268583;60;20404;-67
2023/03/26 04:35:13;0.00;0.00;0.62;0.00;0.00;0.62;1.50;0.73;;;23.70;25.30;;;;;;2269296;61;20412;-67
2023/03/26 04:38:05;0.00;0.00;0.62;0.00;0.00;0.62;1.40;0.70;;;23.70;25.30;;;;;;2268507;61;20366;-67
2023/03/26 04:40:52;0.00;0.00;0.62;0.00;0.00;0.62;1.30;0.70;;;23.70;25.30;;;;;;2268849;60;20817;-67
2023/03/26 04:43:56;0.00;0.00;0.62;0.00;0.00;0.62;1.60;0.80;;;23.70;25.30;;;;;;2272176;61;20361;-67
2023/03/26 04:46:57;0.00;0.00;0.62;0.00;0.00;0.62;1.37;0.70;;;23.70;25.30;;;;;;2268561;61;20378;-67
2023/03/26 04:50:06;0.00;0.00;0.62;0.00;0.00;0.62;1.50;0.90;;;23.70;25.30;;;;;;2268707;61;20802;-68
2023/03/26 04:52:55;0.00;0.00;0.62;0.00;0.00;0.62;1.40;0.73;;;23.70;25.30;;;;;;2271819;61;20476;-67
2023/03/26 04:56:07;0.00;0.00;0.62;0.00;0.00;0.62;1.63;0.73;;;23.70;25.30;;;;;;2272281;61;20387;-66
2023/03/26 04:59:29;0.00;0.00;0.62;0.00;0.00;0.62;1.43;0.80;;;23.70;25.30;;;;;;2270595;61;20423;-67
2023/03/26 05:02:14;0.00;0.00;0.62;0.00;0.00;0.62;1.77;0.77;;;23.60;25.20;;;;;;2268487;61;20382;-67
2023/03/26 05:05:19;0.00;0.00;0.62;0.00;0.00;0.62;1.33;0.63;;;23.60;25.20;;;;;;2268825;61;20417;-67
2023/03/26 05:08:04;0.00;0.00;0.62;0.00;0.00;0.62;1.40;0.60;;;23.70;25.30;;;;;;2268437;61;20401;-67
2023/03/26 05:10:49;0.00;0.00;0.62;0.00;0.00;0.62;1.47;0.80;;;23.60;25.20;;;;;;2271912;61;20385;-67
2023/03/26 05:13:41;0.00;0.00;0.62;0.00;0.00;0.62;1.33;0.70;;;23.70;25.30;;;;;;2269070;61;20363;-67
2023/03/26 05:16:30;0.00;0.00;0.62;0.00;0.00;0.62;1.37;0.80;;;23.60;25.80;;;;;;2268548;61;20382;-67
2023/03/26 05:19:22;0.00;0.00;0.62;0.00;0.00;0.62;2.07;0.80;;;23.60;25.20;;;;;;2268689;61;20362;-68
2023/03/26 05:22:08;0.00;0.00;0.62;0.00;0.00;0.62;1.33;0.70;;;23.60;25.20;;;;;;2268627;61;20492;-67
2023/03/26 05:24:59;0.00;0.00;0.62;0.00;0.00;0.62;1.40;0.80;;;23.60;25.20;;;;;;2268977;61;20362;-68
2023/03/26 05:27:44;0.00;0.00;0.62;0.00;0.00;0.62;1.90;1.00;;;23.60;25.20;;;;;;2268784;61;20358;-67
2023/03/26 05:30:29;0.00;0.00;0.62;0.00;0.00;0.62;1.30;0.70;;;23.60;25.40;;;;;;2267840;61;20390;-67
2023/03/26 05:33:18;0.00;0.00;0.62;0.00;0.00;0.62;1.40;0.80;;;23.60;25.20;;;;;;2268762;61;20366;-67
2023/03/26 05:36:14;0.00;0.00;0.62;0.00;0.00;0.62;1.30;0.80;;;23.60;25.20;;;;;;2269086;61;20803;-67
2023/03/26 05:39:03;0.00;0.00;0.62;0.00;0.00;0.62;1.50;0.70;;;23.60;25.20;;;;;;2268419;61;20358;-67
2023/03/26 05:42:21;0.00;0.00;0.62;0.00;0.00;0.62;1.50;0.80;;;23.60;25.30;;;;;;2264823;61;20420;-67
2023/03/26 05:45:21;0.00;0.00;0.62;0.00;0.00;0.62;1.40;0.70;;;23.60;25.20;;;;;;2268023;61;20382;-67
2023/03/26 05:48:06;0.00;0.00;0.62;0.00;0.00;0.62;1.30;0.70;;;23.60;25.30;;;;;;2268875;61;20366;-67
2023/03/26 05:50:53;0.00;0.00;0.62;0.00;0.00;0.62;1.20;0.60;;;23.60;25.30;;;;;;2268611;61;20952;-67
2023/03/26 05:53:38;0.00;0.00;0.62;0.00;0.00;0.62;1.30;0.70;;;23.60;25.30;;;;;;2268193;61;20401;-70
2023/03/26 05:56:30;0.00;0.00;0.62;0.00;0.00;0.62;1.37;0.83;;;23.60;25.30;;;;;;2272414;61;20831;-67
2023/03/26 05:59:27;0.00;0.00;0.62;0.00;0.00;0.62;1.30;0.60;;;23.60;25.30;;;;;;2271393;61;20831;-67
2023/03/26 06:02:31;0.00;0.00;0.62;0.00;0.00;0.62;2.27;0.80;;;23.60;25.30;;;;;;2271930;61;20909;-67
2023/03/26 06:05:51;0.00;0.00;0.62;0.00;0.00;0.62;1.30;0.70;;;23.60;25.30;;;;;;2250864;61;20401;-67
2023/03/26 06:08:55;0.00;0.00;0.62;0.00;0.00;0.62;1.30;0.60;;;23.60;25.30;;;;;;2268248;61;20384;-68
2023/03/26 06:11:41;0.00;0.00;0.62;0.00;0.00;0.62;1.73;0.80;;;23.60;25.30;;;;;;2268976;61;20422;-67
2023/03/26 06:14:26;0.00;0.00;0.62;0.00;0.00;0.62;1.37;0.60;;;23.60;25.30;;;;;;2268127;61;20366;-67
2023/03/26 06:17:24;0.00;0.00;0.62;0.00;0.00;0.62;1.43;0.73;;;23.60;25.30;;;;;;2269025;61;20770;-71
2023/03/26 06:20:42;0.00;0.00;0.62;0.00;0.00;0.62;1.37;0.70;;;23.60;25.30;;;;;;2262437;61;20356;-67
2023/03/26 06:23:38;0.00;0.00;0.62;0.00;0.00;0.62;1.40;0.80;;;23.60;25.30;;;;;;2263980;61;20373;-68
2023/03/26 06:26:47;0.00;0.00;0.62;0.00;0.00;0.62;1.60;0.80;;;23.60;25.30;;;;;;2268819;61;20453;-68
2023/03/26 06:29:38;0.00;0.00;0.62;0.00;0.00;0.62;1.20;0.70;;;23.60;25.30;;;;;;2270686;61;20397;-67
2023/03/26 06:32:28;0.00;0.00;0.62;0.00;0.00;0.62;1.37;0.60;;;23.60;25.30;;;;;;2272085;61;20346;-67
2023/03/26 06:35:28;0.00;0.00;0.62;0.00;0.00;0.62;1.50;0.70;;;23.60;25.30;;;;;;2268730;61;20386;-67
2023/03/26 06:38:13;0.00;0.00;0.62;0.00;0.00;0.62;1.30;0.60;;;23.60;25.30;;;;;;2268449;61;20362;-68
2023/03/26 06:41:02;0.00;0.00;0.62;0.00;0.00;0.62;1.30;0.60;;;23.60;25.40;;;;;;2268631;61;20370;-67
2023/03/26 06:43:57;0.00;0.00;0.62;0.00;0.00;0.62;1.30;0.70;;;23.60;25.40;;;;;;2268440;61;20439;-67
2023/03/26 06:47:01;0.00;0.00;0.62;0.00;0.00;0.62;1.53;0.73;;;23.60;25.40;;;;;;2267974;61;20927;-67
2023/03/26 06:50:06;0.00;0.00;0.62;0.00;0.00;0.62;3.30;0.73;;;23.60;25.40;;;;;;2267329;61;20409;-67
2023/03/26 06:52:56;0.00;0.00;0.62;0.00;0.00;0.62;1.30;0.70;;;23.60;25.40;;;;;;2264102;61;20401;-67
2023/03/26 06:56:00;0.00;0.00;0.62;0.00;0.00;0.62;1.60;0.60;;;23.60;25.40;;;;;;2265234;61;20460;-67
2023/03/26 06:59:04;0.00;0.00;0.62;0.00;0.00;0.62;1.40;0.70;;;23.60;25.40;;;;;;2267596;61;20366;-68
2023/03/26 07:02:10;0.00;0.00;0.62;0.00;0.00;0.62;1.30;0.70;;;23.60;25.40;;;;;;2268698;61;20405;-67
2023/03/26 07:05:27;0.00;0.00;0.62;0.00;0.00;0.62;1.40;0.70;;;23.60;25.40;;;;;;2254961;61;20381;-67
2023/03/26 07:08:38;0.00;0.00;0.62;0.00;0.00;0.62;1.33;0.80;;;23.60;25.40;;;;;;2247398;61;20400;-67
2023/03/26 07:11:58;0.00;0.00;0.62;0.00;0.00;0.62;1.37;0.70;;;23.60;25.40;;;;;;2235586;61;20802;-67
2023/03/26 07:15:05;0.00;0.00;0.62;0.00;0.00;0.62;1.70;0.67;;;23.60;25.40;;;;;;2254797;61;20430;-67
2023/03/26 07:18:28;0.00;0.00;0.62;0.00;0.00;0.62;1.63;0.70;;;23.60;25.40;;;;;;2253154;61;20474;-67
2023/03/26 07:21:14;0.00;0.00;0.62;0.00;0.00;0.62;1.50;0.60;;;23.60;25.40;;;;;;2257184;61;20471;-67
2023/03/26 07:24:00;0.00;0.00;0.62;0.00;0.00;0.62;1.50;0.70;;;23.60;25.40;;;;;;2264913;61;20475;-67
2023/03/26 07:27:15;0.00;0.00;0.62;0.00;0.00;0.62;1.30;0.70;;;23.60;25.40;;;;;;2265415;61;20401;-66
2023/03/26 07:30:10;0.00;0.00;0.62;0.00;0.00;0.62;1.30;0.80;;;23.60;25.40;;;;;;2264541;61;20363;-67
2023/03/26 07:33:14;0.00;0.00;0.62;0.00;0.00;0.62;1.40;0.70;;;23.50;25.40;;;;;;2265196;61;20383;-67
2023/03/26 07:36:31;0.00;0.00;0.62;0.00;0.00;0.62;1.20;0.70;;;23.60;25.40;;;;;;2255341;61;20389;-67
2023/03/26 07:39:47;0.00;0.00;0.62;0.00;0.00;0.62;1.40;0.70;;;23.60;25.50;;;;;;2267979;61;20413;-67
2023/03/26 07:43:00;0.00;0.00;0.62;0.00;0.00;0.62;1.30;0.60;;;23.60;25.50;;;;;;2267850;61;20776;-66
2023/03/26 07:46:10;0.00;0.00;0.62;0.00;0.00;0.62;1.30;0.60;;;23.60;25.50;;;;;;2268166;61;20985;-66
2023/03/26 07:49:05;0.00;0.00;0.62;0.00;0.00;0.62;1.30;0.60;;;23.60;25.50;;;;;;2270781;61;20382;-67
2023/03/26 07:51:57;0.00;0.00;0.62;0.00;0.00;0.62;1.70;0.80;;;23.60;25.50;;;;;;2267366;61;20398;-67
2023/03/26 07:55:02;0.00;0.00;0.62;0.00;0.00;0.62;1.50;0.80;;;23.60;25.50;;;;;;2268511;61;20422;-67
2023/03/26 07:58:03;0.00;0.00;0.62;0.00;0.00;0.62;1.77;0.77;;;23.60;25.50;;;;;;2267793;61;20362;-67
2023/03/26 08:01:22;0.00;0.00;0.62;0.00;0.00;0.62;1.40;0.70;;;23.60;25.50;;;;;;2250784;61;20946;-67
2023/03/26 08:04:30;0.00;0.00;0.62;0.00;0.00;0.62;1.30;0.67;;;23.60;25.50;;;;;;2253833;61;20367;-67
2023/03/26 08:07:52;0.00;0.00;0.62;0.00;0.00;0.62;1.20;0.70;;;23.60;26.00;;;;;;2258777;61;20372;-67
2023/03/26 08:11:02;0.00;0.00;0.62;0.00;0.00;0.62;1.40;0.80;;;23.60;25.50;;;;;;2264677;61;20395;-70
2023/03/26 08:14:16;0.00;0.00;0.62;0.00;0.00;0.62;1.50;0.97;;;23.60;25.50;;;;;;2264531;61;20824;-67
2023/03/26 08:17:10;0.00;0.00;0.62;0.00;0.00;0.62;1.90;1.30;;;23.60;25.50;;;;;;2268522;61;20426;-67
2023/03/26 08:20:06;0.00;0.00;0.62;0.00;0.00;0.62;1.93;1.43;;;23.60;25.50;;;;;;2264096;61;20403;-67
2023/03/26 08:22:59;0.00;0.00;0.62;0.00;0.00;0.62;2.23;1.53;;;23.60;25.50;;;;;;2268305;61;20343;-71
2023/03/26 08:25:58;0.00;0.00;0.62;0.00;0.00;0.62;2.43;1.90;;;23.60;25.50;;;;;;2268438;61;20428;-67
2023/03/26 08:28:57;0.00;0.00;0.62;0.00;0.00;0.62;3.13;2.20;;;23.60;25.50;;;;;;2267635;61;20378;-67
2023/03/26 08:31:45;0.00;0.00;0.62;0.00;0.00;0.62;2.83;1.73;;;23.60;25.50;;;;;;2268316;61;20391;-67
2023/03/26 08:34:31;0.00;0.00;0.62;0.00;0.00;0.62;3.20;1.93;;;23.60;25.50;;;;;;2267358;61;20430;-67
2023/03/26 08:37:15;0.00;0.00;0.62;0.00;0.00;0.62;2.27;1.90;;;23.60;25.50;;;;;;2268047;61;21081;-67
2023/03/26 08:40:00;0.00;0.00;0.62;0.00;0.00;0.62;2.60;1.83;;;23.60;25.40;;;;;;2268156;61;20772;-67
2023/03/26 08:43:25;0.00;0.00;0.62;0.00;0.00;0.62;3.87;2.30;;;23.70;25.50;;;;;;2267411;61;20367;-67
2023/03/26 08:47:02;0.00;0.00;0.62;0.00;0.00;0.62;2.57;2.07;;;23.60;25.50;;;;;;2268262;61;20419;-67
2023/03/26 08:50:25;0.00;0.00;0.62;0.00;0.00;0.62;2.60;1.83;;;23.60;25.50;;;;;;2267060;61;20378;-67
2023/03/26 08:54:14;0.00;0.00;0.62;0.00;0.00;0.62;2.23;1.70;;;23.60;25.50;;;;;;2270456;61;20413;-67
2023/03/26 08:57:39;0.00;0.00;0.62;0.00;0.00;0.62;2.40;1.70;;;23.70;25.50;;;;;;2271665;61;20442;-67
2023/03/26 09:01:13;0.00;0.00;0.62;0.00;0.00;0.62;2.50;2.00;;;23.60;25.50;;;;;;2271902;61;20373;-67
2023/03/26 09:04:33;0.00;0.00;0.62;0.00;0.00;0.62;4.00;2.20;;;23.70;25.60;;;;;;2262817;61;20364;-67
2023/03/26 09:08:21;0.00;0.00;0.62;0.00;0.00;0.62;2.90;1.87;;;23.70;25.60;;;;;;2262962;61;20388;-67
2023/03/26 09:11:55;0.00;0.00;0.62;0.00;0.00;0.62;2.90;1.70;;;23.70;25.50;;;;;;2230668;62;20399;-67
2023/03/26 09:15:36;0.00;0.00;0.62;0.00;0.00;0.62;2.63;1.70;;;23.70;25.50;;;;;;2231040;62;20414;-67
2023/03/26 09:19:00;0.00;0.00;0.62;0.00;0.00;0.62;2.10;1.87;;;23.70;25.50;;;;;;2231033;62;20379;-67
2023/03/26 09:22:44;0.00;0.00;0.62;0.00;0.00;0.62;4.57;2.00;;;23.70;25.50;;;;;;2231233;62;20403;-67
2023/03/26 09:25:55;0.00;0.00;0.62;0.00;0.00;0.62;2.80;1.83;;;23.70;25.50;;;;;;2238592;61;20428;-67
2023/03/26 09:29:14;0.00;0.00;0.62;0.00;0.00;0.62;2.43;1.50;;;23.70;25.50;;;;;;2242711;61;20377;-67
2023/03/26 09:32:38;0.00;0.00;0.62;0.00;0.00;0.62;3.03;1.67;;;23.70;25.50;;;;;;2242829;61;20395;-68
2023/03/26 09:35:51;0.00;0.00;0.62;0.00;0.00;0.62;2.23;1.53;;;23.70;25.50;;;;;;2242115;61;20420;-67
2023/03/26 09:38:43;0.00;0.00;0.62;0.00;0.00;0.62;2.00;1.60;;;23.70;25.50;;;;;;2243162;61;20936;-67
2023/03/26 09:41:41;0.00;0.00;0.62;0.00;0.00;0.62;2.03;1.30;;;23.70;26.00;;;;;;2252870;61;20358;-67
2023/03/26 09:45:03;0.00;0.00;0.62;0.00;0.00;0.62;2.03;1.30;;;23.70;25.50;;;;;;2254857;61;20433;-67
2023/03/26 09:48:36;0.00;0.00;0.62;0.00;0.00;0.62;2.50;1.77;;;23.80;25.50;;;;;;2268029;61;20471;-67
2023/03/26 09:51:45;0.00;0.00;0.62;0.00;0.00;0.62;1.60;1.17;;;23.70;25.50;;;;;;2258946;61;20881;-67
2023/03/26 09:55:37;0.00;0.00;0.62;0.00;0.00;0.62;2.10;1.40;;;23.70;25.50;;;;;;2258613;61;20388;-67
2023/03/26 09:59:04;0.00;0.00;0.62;0.00;0.00;0.62;2.27;1.50;;;23.70;25.50;;;;;;2258877;61;20453;-67
2023/03/26 10:02:00;0.00;0.00;0.62;0.00;0.00;0.62;2.33;1.23;;;23.80;25.50;;;;;;2255957;61;20473;-70
2023/03/26 10:05:18;0.00;0.00;0.62;0.00;0.00;0.62;1.60;1.20;;;23.80;25.50;;;;;;2258127;61;20425;-68
2023/03/26 10:08:28;0.00;0.00;0.62;0.00;0.00;0.62;1.83;1.20;;;23.80;25.50;;;;;;2258638;61;20960;-67
2023/03/26 10:11:23;0.00;0.00;0.62;0.00;0.00;0.62;2.03;1.37;;;23.80;25.50;;;;;;2257932;61;20373;-67
2023/03/26 10:14:21;0.00;0.00;0.62;0.00;0.00;0.62;1.80;1.40;;;23.80;25.50;;;;;;2253305;61;20365;-67
2023/03/26 10:17:30;0.00;0.00;0.62;0.00;0.00;0.62;2.40;1.60;;;23.80;25.50;;;;;;2258864;61;20441;-67
2023/03/26 10:20:32;0.00;0.00;0.62;0.00;0.00;0.62;2.60;1.83;;;23.80;25.50;;;;;;2258166;61;20392;-67
2023/03/26 10:23:49;0.00;0.00;0.62;0.00;0.00;0.62;2.50;2.23;;;23.80;25.50;;;;;;2258891;61;20420;-67
2023/03/26 10:27:12;0.00;0.00;0.62;0.00;0.00;0.62;2.80;1.80;;;23.80;25.50;;;;;;2260323;61;20471;-69
2023/03/26 10:30:29;0.00;0.00;0.62;0.00;0.00;0.62;2.60;2.00;;;23.90;25.50;;;;;;2263737;61;20366;-67
2023/03/26 10:33:34;0.00;0.00;0.62;0.00;0.00;0.62;2.20;1.87;;;23.80;25.50;;;;;;2265076;61;20368;-66
2023/03/26 10:36:29;0.00;0.00;0.62;0.00;0.00;0.62;2.83;2.00;;;23.90;25.50;;;;;;2268553;61;20382;-67
2023/03/26 10:39:36;0.00;0.00;0.62;0.00;0.00;0.62;3.33;2.13;;;23.90;25.60;;;;;;2268412;61;20363;-67
2023/03/26 10:42:52;0.00;0.00;0.62;0.00;0.00;0.62;2.33;1.80;;;23.90;25.50;;;;;;2268327;61;20347;-67
2023/03/26 10:46:00;0.00;0.00;0.62;0.00;0.00;0.62;2.17;1.60;;;23.90;25.50;;;;;;2268578;61;20379;-68
2023/03/26 10:49:32;0.00;0.00;0.62;0.00;0.00;0.62;3.10;2.40;;;23.90;25.50;;;;;;2267937;61;20417;-68
2023/03/26 10:52:22;0.00;0.00;0.62;0.00;0.00;0.62;2.67;1.97;;;23.90;25.50;;;;;;2254584;61;20394;-67
2023/03/26 10:55:15;0.00;0.00;0.62;0.00;0.00;0.62;2.63;1.63;;;23.90;25.50;;;;;;2267353;61;20934;-67
2023/03/26 10:58:08;0.00;0.00;0.62;0.00;0.00;0.62;2.50;1.67;;;23.90;25.50;;;;;;2268597;61;20804;-68
2023/03/26 11:00:59;0.00;0.00;0.62;0.00;0.00;0.62;2.40;1.50;;;23.90;25.50;;;;;;2268552;61;20378;-68
2023/03/26 11:03:53;0.00;0.00;0.62;0.00;0.00;0.62;2.60;1.70;;;24.00;25.50;;;;;;2268172;61;20436;-65
2023/03/26 11:06:48;0.00;0.00;0.62;0.00;0.00;0.62;2.80;1.83;;;24.00;25.50;;;;;;2268630;61;20383;-66
2023/03/26 11:09:43;0.00;0.00;0.62;0.00;0.00;0.62;2.13;1.70;;;24.00;25.50;;;;;;2267536;61;20347;-64
2023/03/26 11:12:34;0.00;0.00;0.62;0.00;0.00;0.62;1.80;1.30;;;24.00;25.50;;;;;;2268691;61;20391;-66
2023/03/26 11:15:27;0.00;0.00;0.62;0.00;0.00;0.62;1.90;1.30;;;24.00;25.50;;;;;;2268611;61;20409;-65
2023/03/26 11:18:18;0.00;0.00;0.62;0.00;0.00;0.62;2.37;1.50;;;24.00;25.50;;;;;;2268051;61;20428;-65
2023/03/26 11:21:11;0.00;0.00;0.62;0.00;0.00;0.62;2.50;1.50;;;24.00;25.50;;;;;;2268077;61;20371;-70
2023/03/26 11:24:23;0.00;0.00;0.62;0.00;0.00;0.62;2.30;1.50;;;24.00;25.50;;;;;;2268586;61;20413;-65
2023/03/26 11:27:16;0.00;0.00;0.62;0.00;0.00;0.62;2.30;1.60;;;24.00;25.50;;;;;;2268476;61;20383;-67
2023/03/26 11:30:18;0.00;0.00;0.62;0.00;0.00;0.62;2.93;1.73;;;24.10;25.60;;;;;;2267940;61;20424;-66
2023/03/26 11:33:06;0.00;0.00;0.62;0.00;0.00;0.62;3.90;1.50;;;24.10;25.60;;;;;;2267513;61;20386;-67
2023/03/26 11:36:00;0.00;0.00;0.62;0.00;0.00;0.62;2.23;1.47;;;24.10;25.50;;;;;;2268808;61;20383;-67
2023/03/26 11:38:47;0.00;0.00;0.62;0.00;0.00;0.62;1.90;1.30;;;24.10;25.50;;;;;;2268563;61;20403;-68
2023/03/26 11:41:36;0.00;0.00;0.62;0.00;0.00;0.62;1.90;1.63;;;24.10;25.50;;;;;;2267427;61;20392;-68
2023/03/26 11:44:29;0.00;0.00;0.62;0.00;0.00;0.62;1.70;1.33;;;24.10;25.50;;;;;;2268259;61;20367;-68
2023/03/26 11:47:22;0.00;0.00;0.62;0.00;0.00;0.62;1.90;1.37;;;24.10;25.50;;;;;;2267323;61;20401;-68